OIIE/IKA METAR and TAF weather

Enter ICAO airport designator
Station Type Date Time Source
OIIE METAR 2019/10/15 04:00 UTC NOAA

OIIE 150400Z 27010KT CAVOK 14/01 Q1027


Station Type Date Time Source
OIIE Decoded METAR 2019/10/15 04:00 UTC NOAA

Station name not available
Oct 15, 2019 - 12:00 AM EDT / 2019.10.15 0400 UTC
Wind: from the W (270 degrees) at 12 MPH (10 KT):0
Visibility: greater than 7 mile(s):0
Temperature: 57 F (14 C)
Dew Point: 33 F (1 C)
Relative Humidity: 41%
Pressure (altimeter): 30.33 in. Hg (1027 hPa)
ob: OIIE 150400Z 27010KT CAVOK 14/01 Q1027
cycle: 4

Station Type Date Time Source
OIIE TAF 2019/10/14 18:00 UTC NOAA

TAF OIIE 141730Z 1418/1524 12008KT 7000 FEW035

Example: see airport list